Time;durP1;ratioP1;P1;durP2;ratioP2;P2;SDS_P1;SDS_P2;PMS_P1;PMS_P2;Temp;Humidity;BMP_temperature;BMP_pressure;BME280_temperature;BME280_humidity;BME280_pressure;Samples;Min_cycle;Max_cycle;Signal;HPM_P1;HPM_P2
2023/12/12 00:00:59;;;;;;;17.50;11.20;;;;;;;6.14;100.00;97523.77;107873;1308;22503;-51
2023/12/12 00:03:24;;;;;;;16.70;10.40;;;;;;;6.12;100.00;97523.48;107858;1308;23293;-52
2023/12/12 00:05:50;;;;;;;17.60;11.90;;;;;;;6.11;100.00;97525.85;107873;1308;22215;-52
2023/12/12 00:08:15;;;;;;;19.70;11.70;;;;;;;6.14;100.00;97523.93;107695;1308;22953;-52
2023/12/12 00:10:40;;;;;;;20.10;11.70;;;;;;;6.16;100.00;97528.52;107871;1308;22274;-53
2023/12/12 00:13:06;;;;;;;21.80;11.80;;;;;;;6.15;100.00;97528.90;107876;1308;22260;-48
2023/12/12 00:15:31;;;;;;;18.50;11.70;;;;;;;6.17;100.00;97530.20;107881;1308;22990;-52
2023/12/12 00:17:57;;;;;;;17.40;11.20;;;;;;;6.16;100.00;97533.02;107890;1308;22341;-52
2023/12/12 00:20:22;;;;;;;17.80;12.20;;;;;;;6.19;100.00;97537.39;107856;1308;22264;-52
2023/12/12 00:22:47;;;;;;;17.40;12.60;;;;;;;6.21;100.00;97539.48;107897;1308;22893;-50
2023/12/12 00:25:13;;;;;;;18.50;11.80;;;;;;;6.20;100.00;97546.71;107878;1308;22220;-52
2023/12/12 00:27:38;;;;;;;18.40;12.10;;;;;;;6.19;100.00;97551.48;107874;1308;22280;-51
2023/12/12 00:30:04;;;;;;;20.30;11.90;;;;;;;6.17;100.00;97560.29;107851;1307;22238;-51
2023/12/12 00:32:30;;;;;;;17.40;12.00;;;;;;;6.17;100.00;97560.99;107877;1308;22535;-52
2023/12/12 00:34:55;;;;;;;21.90;13.10;;;;;;;6.16;100.00;97565.38;107885;1308;22996;-50
2023/12/12 00:37:20;;;;;;;21.30;12.40;;;;;;;6.13;100.00;97562.97;107864;1308;23356;-52
2023/12/12 00:39:46;;;;;;;23.90;13.60;;;;;;;6.15;100.00;97566.11;107864;1308;22684;-50
2023/12/12 00:42:11;;;;;;;21.30;13.20;;;;;;;6.13;100.00;97569.02;107857;1308;22276;-51
2023/12/12 00:44:37;;;;;;;18.70;12.30;;;;;;;6.13;100.00;97572.66;107856;1308;22236;-51
2023/12/12 00:47:05;;;;;;;18.90;13.80;;;;;;;6.14;100.00;97570.70;107864;1308;22390;-52
2023/12/12 00:49:30;;;;;;;25.00;13.50;;;;;;;6.14;100.00;97572.60;107871;1308;22478;-50
2023/12/12 00:51:55;;;;;;;20.10;12.60;;;;;;;6.15;100.00;97572.91;107876;1308;22260;-49
2023/12/12 00:54:21;;;;;;;22.10;14.50;;;;;;;6.16;100.00;97579.63;107709;1308;23016;-50
2023/12/12 00:56:49;;;;;;;20.70;13.00;;;;;;;6.18;100.00;97579.05;107885;1307;22228;-50
2023/12/12 00:59:14;;;;;;;26.80;13.00;;;;;;;6.17;100.00;97584.48;107884;1308;22408;-51
2023/12/12 01:01:40;;;;;;;19.80;13.00;;;;;;;6.17;100.00;97587.42;107886;1308;23031;-53
2023/12/12 01:04:07;;;;;;;18.70;12.80;;;;;;;6.18;100.00;97587.02;107684;1308;22486;-50
2023/12/12 01:06:33;;;;;;;20.30;12.70;;;;;;;6.17;100.00;97591.41;107863;1298;22974;-53
2023/12/12 01:08:58;;;;;;;21.10;14.50;;;;;;;6.15;100.00;97591.36;107862;1308;22446;-51
2023/12/12 01:11:23;;;;;;;21.10;12.90;;;;;;;6.14;100.00;97594.73;107879;1307;22223;-53
2023/12/12 01:13:49;;;;;;;21.00;13.60;;;;;;;6.13;100.00;97598.47;107885;1308;22422;-50
2023/12/12 01:16:14;;;;;;;20.60;12.70;;;;;;;6.10;100.00;97602.78;107881;1308;22351;-51
2023/12/12 01:18:39;;;;;;;24.50;13.90;;;;;;;6.08;100.00;97606.23;107831;1308;22259;-52
2023/12/12 01:21:05;;;;;;;19.90;12.80;;;;;;;6.09;100.00;97606.90;107870;1308;22412;-51
2023/12/12 01:23:46;;;;;;;19.30;13.50;;;;;;;6.11;100.00;97610.05;107869;1308;23339;-51
2023/12/12 01:26:12;;;;;;;23.70;13.90;;;;;;;6.12;100.00;97612.45;107881;1308;22430;-52
2023/12/12 01:28:37;;;;;;;20.10;12.40;;;;;;;6.09;100.00;97613.18;107867;1308;22329;-51
2023/12/12 01:31:02;;;;;;;18.50;13.40;;;;;;;6.09;100.00;97618.20;107847;1308;22244;-50
2023/12/12 01:33:28;;;;;;;25.20;13.70;;;;;;;6.09;100.00;97621.30;107875;1308;22257;-53
2023/12/12 01:35:53;;;;;;;21.00;13.80;;;;;;;6.11;100.00;97625.69;107858;1308;22997;-52
2023/12/12 01:38:19;;;;;;;20.20;13.60;;;;;;;6.11;100.00;97628.00;107884;1308;22487;-52
2023/12/12 01:40:44;;;;;;;29.80;16.80;;;;;;;6.10;100.00;97627.02;107884;1308;22264;-53
2023/12/12 01:43:09;;;;;;;24.90;15.00;;;;;;;6.09;100.00;97628.11;107875;1308;22990;-52
2023/12/12 01:45:35;;;;;;;24.00;15.10;;;;;;;6.10;100.00;97632.08;107868;1308;22297;-50
2023/12/12 01:48:00;;;;;;;35.90;18.40;;;;;;;6.08;100.00;97633.04;107874;1308;22472;-51
2023/12/12 01:50:26;;;;;;;24.60;15.70;;;;;;;6.10;100.00;97635.33;107862;1308;22248;-49
2023/12/12 01:52:52;;;;;;;27.90;17.50;;;;;;;6.13;100.00;97638.60;107854;1308;22248;-51
2023/12/12 01:55:17;;;;;;;22.00;14.40;;;;;;;6.15;100.00;97640.40;107856;1308;22270;-53
2023/12/12 01:57:43;;;;;;;26.10;14.90;;;;;;;6.13;100.00;97641.75;107888;1308;23416;-53
2023/12/12 02:00:10;;;;;;;24.20;16.50;;;;;;;6.10;100.00;97641.11;107894;1308;22410;-53
2023/12/12 02:02:35;;;;;;;21.60;15.50;;;;;;;6.08;100.00;97644.33;107896;1308;22310;-52
2023/12/12 02:05:01;;;;;;;24.00;15.80;;;;;;;6.11;100.00;97643.85;107882;1308;22239;-49
2023/12/12 02:07:29;;;;;;;21.00;15.10;;;;;;;6.11;100.00;97647.64;107894;1301;22942;-49
2023/12/12 02:09:54;;;;;;;23.00;15.60;;;;;;;6.12;100.00;97645.98;107865;1308;22243;-52
2023/12/12 02:12:22;;;;;;;26.40;16.90;;;;;;;6.13;100.00;97650.61;107881;1308;22256;-50
2023/12/12 02:14:48;;;;;;;20.50;14.40;;;;;;;6.15;100.00;97651.06;107876;1308;22921;-51
2023/12/12 02:17:13;;;;;;;22.00;14.90;;;;;;;6.18;100.00;97654.20;107894;1308;22262;-52
2023/12/12 02:19:38;;;;;;;20.00;14.60;;;;;;;6.18;100.00;97660.65;107698;1308;22309;-50
2023/12/12 02:22:04;;;;;;;24.70;14.30;;;;;;;6.17;100.00;97656.86;107903;1308;22235;-51
2023/12/12 02:24:29;;;;;;;21.70;14.70;;;;;;;6.15;100.00;97657.51;107892;1308;22317;-51
2023/12/12 02:26:55;;;;;;;23.20;15.00;;;;;;;6.17;100.00;97660.31;107872;1308;22305;-51
2023/12/12 02:29:21;;;;;;;23.30;15.90;;;;;;;6.18;100.00;97659.04;107867;1308;22379;-48
2023/12/12 02:31:46;;;;;;;23.10;15.90;;;;;;;6.21;100.00;97663.89;107896;1308;22414;-50
2023/12/12 02:34:11;;;;;;;25.50;15.90;;;;;;;6.20;100.00;97663.94;107881;1308;22247;-50
2023/12/12 02:36:37;;;;;;;28.70;16.50;;;;;;;6.22;100.00;97664.73;107884;1308;23072;-52
2023/12/12 02:39:03;;;;;;;22.80;16.00;;;;;;;6.23;100.00;97665.69;107855;1308;22930;-51
2023/12/12 02:41:28;;;;;;;24.90;16.60;;;;;;;6.26;100.00;97664.14;107911;1308;22948;-51
2023/12/12 02:43:54;;;;;;;24.80;17.40;;;;;;;6.26;100.00;97663.73;107868;1295;22462;-52
2023/12/12 02:46:20;;;;;;;27.10;17.00;;;;;;;6.28;100.00;97667.09;107903;1308;22240;-52
2023/12/12 02:48:45;;;;;;;23.90;15.70;;;;;;;6.27;100.00;97670.65;107892;1308;22505;-51
2023/12/12 02:51:11;;;;;;;24.80;16.00;;;;;;;6.24;100.00;97670.48;107884;1308;22355;-51
2023/12/12 02:53:36;;;;;;;24.00;16.30;;;;;;;6.24;100.00;97676.77;107895;1308;22228;-52
2023/12/12 02:56:01;;;;;;;24.90;16.40;;;;;;;6.23;100.00;97675.45;107857;1308;22475;-50
2023/12/12 02:58:27;;;;;;;22.80;16.20;;;;;;;6.23;100.00;97674.59;107740;1308;159822;-51
2023/12/12 03:00:52;;;;;;;20.40;14.40;;;;;;;6.22;100.00;97673.58;107885;1308;22230;-53
2023/12/12 03:03:18;;;;;;;17.90;12.70;;;;;;;6.23;100.00;97682.02;107906;1308;22458;-53
2023/12/12 03:05:43;;;;;;;19.70;14.00;;;;;;;6.24;100.00;97679.58;107881;1308;23362;-50
2023/12/12 03:08:08;;;;;;;18.50;12.70;;;;;;;6.23;100.00;97684.48;107892;1308;22240;-48
2023/12/12 03:10:34;;;;;;;16.40;10.90;;;;;;;6.24;100.00;97687.91;107869;1308;22248;-49
2023/12/12 03:12:59;;;;;;;14.90;11.30;;;;;;;6.26;100.00;97687.11;107624;1286;22430;-49
2023/12/12 03:15:24;;;;;;;16.70;11.60;;;;;;;6.26;100.00;97692.46;107369;1311;22182;-53
2023/12/12 03:17:50;;;;;;;14.60;10.60;;;;;;;6.27;100.00;97690.85;107394;1312;22446;-53
2023/12/12 03:20:15;;;;;;;16.30;11.60;;;;;;;6.28;100.00;97692.52;107372;1312;22301;-53
2023/12/12 03:22:40;;;;;;;16.00;10.40;;;;;;;6.29;100.00;97694.89;107378;1312;23156;-51
2023/12/12 03:25:07;;;;;;;11.90;10.00;;;;;;;6.31;100.00;97691.98;107387;1312;22375;-52
2023/12/12 03:27:33;;;;;;;10.10;8.50;;;;;;;6.35;100.00;97697.80;107391;1312;22273;-47
2023/12/12 03:29:58;;;;;;;12.00;8.40;;;;;;;6.35;100.00;97698.00;107380;1312;22259;-54
2023/12/12 03:32:24;;;;;;;10.20;8.20;;;;;;;6.33;100.00;97700.73;107376;1312;22288;-52
2023/12/12 03:34:49;;;;;;;9.30;7.90;;;;;;;6.33;100.00;97706.99;107366;1312;22899;-51
2023/12/12 03:37:15;;;;;;;9.20;6.90;;;;;;;6.32;100.00;97705.67;107374;1312;22390;-51
2023/12/12 03:39:41;;;;;;;7.70;6.40;;;;;;;6.29;100.00;97708.80;107369;1310;23056;-52
2023/12/12 03:42:06;;;;;;;10.80;6.90;;;;;;;6.31;100.00;97707.29;107377;1312;22269;-52
2023/12/12 03:44:32;;;;;;;6.60;5.70;;;;;;;6.31;100.00;97710.95;107384;1312;22873;-50
2023/12/12 03:46:57;;;;;;;8.40;6.10;;;;;;;6.31;100.00;97714.23;107401;1312;22372;-50
2023/12/12 03:49:22;;;;;;;8.60;5.70;;;;;;;6.34;100.00;97716.50;107394;1312;22187;-48
2023/12/12 03:51:48;;;;;;;6.40;5.80;;;;;;;6.35;100.00;97719.73;107371;1312;23566;-50
2023/12/12 03:54:14;;;;;;;5.50;5.00;;;;;;;6.36;100.00;97719.14;107389;1312;22288;-52
2023/12/12 03:56:39;;;;;;;4.90;4.40;;;;;;;6.35;100.00;97717.65;107397;1312;22240;-51
2023/12/12 03:59:05;;;;;;;4.10;3.70;;;;;;;6.32;100.00;97719.76;107424;1312;22858;-53
2023/12/12 04:01:31;;;;;;;4.50;4.00;;;;;;;6.32;100.00;97719.92;107383;1312;22230;-53
2023/12/12 04:03:56;;;;;;;4.70;3.90;;;;;;;6.32;100.00;97721.14;107408;1312;22980;-51
2023/12/12 04:06:22;;;;;;;4.40;4.00;;;;;;;6.32;100.00;97721.64;107386;1298;22233;-49
2023/12/12 04:08:49;;;;;;;4.20;3.90;;;;;;;6.33;100.00;97720.92;107383;1312;22996;-49
2023/12/12 04:11:15;;;;;;;4.80;4.40;;;;;;;6.33;100.00;97723.66;107397;1312;22244;-50
2023/12/12 04:13:40;;;;;;;4.40;4.10;;;;;;;6.34;100.00;97726.58;107419;1312;23168;-51
2023/12/12 04:16:05;;;;;;;4.20;3.80;;;;;;;6.35;100.00;97728.45;107411;1312;22350;-52
2023/12/12 04:18:31;;;;;;;4.30;3.90;;;;;;;6.38;100.00;97734.55;107406;1312;22258;-50
2023/12/12 04:20:56;;;;;;;3.50;3.30;;;;;;;6.37;100.00;97740.14;107411;1312;22244;-51
2023/12/12 04:23:22;;;;;;;4.20;3.80;;;;;;;6.35;100.00;97742.18;107392;1312;22348;-52
2023/12/12 04:25:47;;;;;;;4.40;4.10;;;;;;;6.31;100.00;97740.87;107419;1312;23125;-50
2023/12/12 04:28:12;;;;;;;3.40;3.10;;;;;;;6.33;100.00;97744.20;107417;1312;22661;-51
2023/12/12 04:30:38;;;;;;;3.30;3.10;;;;;;;6.32;100.00;97746.02;107398;1312;22254;-52
2023/12/12 04:33:03;;;;;;;4.80;3.50;;;;;;;6.31;100.00;97744.35;107401;1312;22490;-53
2023/12/12 04:35:28;;;;;;;3.80;3.50;;;;;;;6.32;100.00;97746.76;107401;1312;22422;-49
2023/12/12 04:37:54;;;;;;;3.40;3.20;;;;;;;6.32;100.00;97749.49;107420;1312;22242;-52
2023/12/12 04:40:19;;;;;;;3.50;3.20;;;;;;;6.36;100.00;97751.69;107427;1312;25016;-51
2023/12/12 04:42:44;;;;;;;3.40;3.10;;;;;;;6.36;100.00;97749.98;107408;1312;22278;-49
2023/12/12 04:45:10;;;;;;;4.00;3.60;;;;;;;6.36;100.00;97749.65;107398;1312;23201;-53
2023/12/12 04:47:35;;;;;;;3.80;3.40;;;;;;;6.37;100.00;97747.48;107400;1312;22247;-52
2023/12/12 04:50:00;;;;;;;3.00;2.80;;;;;;;6.37;100.00;97748.50;107408;1312;22908;-51
2023/12/12 04:52:27;;;;;;;4.30;3.90;;;;;;;6.35;100.00;97755.94;107390;1312;22246;-52
2023/12/12 04:54:53;;;;;;;6.30;3.70;;;;;;;6.34;100.00;97752.68;107420;1312;22266;-51
2023/12/12 04:57:19;;;;;;;4.30;4.00;;;;;;;6.35;100.00;97755.92;107418;1312;22239;-52
2023/12/12 04:59:45;;;;;;;3.80;3.50;;;;;;;6.38;100.00;97758.06;107394;1312;23118;-52
2023/12/12 05:02:10;;;;;;;5.10;4.70;;;;;;;6.35;100.00;97759.43;107409;1312;22298;-52
2023/12/12 05:04:37;;;;;;;4.70;4.30;;;;;;;6.35;100.00;97762.77;107397;1312;22230;-53
2023/12/12 05:07:03;;;;;;;3.80;3.50;;;;;;;6.33;100.00;97761.61;107410;1312;22411;-48
2023/12/12 05:09:28;;;;;;;5.20;4.80;;;;;;;6.32;100.00;97763.11;107428;1312;22254;-51
2023/12/12 05:11:53;;;;;;;4.10;3.80;;;;;;;6.33;100.00;97768.95;107412;1312;22252;-53
2023/12/12 05:14:19;;;;;;;3.80;3.50;;;;;;;6.30;100.00;97767.92;107392;1312;22333;-48
2023/12/12 05:16:44;;;;;;;7.50;5.40;;;;;;;6.28;100.00;97765.47;107402;1312;22248;-48
2023/12/12 05:19:09;;;;;;;5.40;4.60;;;;;;;6.25;100.00;97766.65;107387;1312;22242;-52
2023/12/12 05:21:35;;;;;;;4.10;3.70;;;;;;;6.23;100.00;97772.19;107394;1312;22921;-51
2023/12/12 05:24:00;;;;;;;6.10;4.30;;;;;;;6.27;100.00;97773.52;107407;1312;22960;-51
2023/12/12 05:26:26;;;;;;;3.70;3.40;;;;;;;6.28;100.00;97779.20;107413;1312;22366;-53
2023/12/12 05:28:51;;;;;;;7.40;5.80;;;;;;;6.26;100.00;97785.73;107396;1312;22453;-58
2023/12/12 05:31:16;;;;;;;5.80;5.10;;;;;;;6.24;100.00;97787.11;107413;1312;22253;-49
2023/12/12 05:33:42;;;;;;;9.00;6.70;;;;;;;6.24;100.00;97787.81;107409;1312;22269;-52
2023/12/12 05:36:08;;;;;;;5.20;4.40;;;;;;;6.18;100.00;97790.23;107423;1312;22979;-53
2023/12/12 05:38:33;;;;;;;15.10;9.60;;;;;;;6.17;100.00;97795.89;107429;1312;22258;-52
2023/12/12 05:40:59;;;;;;;39.70;17.40;;;;;;;6.16;100.00;97800.30;107425;1312;22267;-52
2023/12/12 05:43:24;;;;;;;26.50;12.70;;;;;;;6.17;100.00;97801.96;107394;1312;23061;-53
2023/12/12 05:45:50;;;;;;;35.40;16.00;;;;;;;6.18;100.00;97811.80;107412;1312;23085;-51
2023/12/12 05:48:16;;;;;;;10.40;6.70;;;;;;;6.15;100.00;97812.00;107425;1312;22265;-52
2023/12/12 05:50:41;;;;;;;29.20;13.60;;;;;;;6.13;100.00;97812.98;107412;1312;22252;-53
2023/12/12 05:53:07;;;;;;;15.30;8.40;;;;;;;6.13;100.00;97816.31;107409;1312;22248;-52
2023/12/12 05:55:33;;;;;;;16.80;9.50;;;;;;;6.12;100.00;97815.48;107426;1312;22264;-50
2023/12/12 05:57:58;;;;;;;22.50;13.30;;;;;;;6.11;100.00;97819.39;107382;1312;23196;-53
2023/12/12 06:00:27;;;;;;;22.10;13.20;;;;;;;6.11;100.00;97821.48;107406;1312;22868;-52
2023/12/12 06:02:52;;;;;;;31.20;13.40;;;;;;;6.07;100.00;97825.52;107429;1312;23014;-50
2023/12/12 06:05:19;;;;;;;14.80;7.60;;;;;;;6.06;100.00;97832.19;107411;1312;22478;-53
2023/12/12 06:07:44;;;;;;;14.20;8.70;;;;;;;6.07;100.00;97835.79;107405;1312;22260;-53
2023/12/12 06:10:10;;;;;;;7.30;5.10;;;;;;;6.04;100.00;97840.50;107404;1312;22260;-52
2023/12/12 06:12:35;;;;;;;4.10;3.50;;;;;;;5.99;100.00;97843.59;107407;1312;22360;-49
2023/12/12 06:15:01;;;;;;;3.50;2.50;;;;;;;5.95;100.00;97857.54;107396;1312;22266;-49
2023/12/12 06:17:26;;;;;;;4.00;3.70;;;;;;;5.90;100.00;97858.53;107415;1312;22239;-49
2023/12/12 06:19:52;;;;;;;4.60;3.00;;;;;;;5.84;100.00;97862.37;107403;1312;23331;-51
2023/12/12 06:22:18;;;;;;;3.90;2.60;;;;;;;5.84;100.00;97864.98;107394;1312;22228;-52
2023/12/12 06:24:45;;;;;;;3.30;2.00;;;;;;;5.84;100.00;97874.70;107426;1312;22293;-54
2023/12/12 06:27:10;;;;;;;2.80;2.30;;;;;;;5.81;100.00;97885.85;107404;1312;22447;-52
2023/12/12 06:29:36;;;;;;;3.10;2.80;;;;;;;5.73;100.00;97884.06;107402;1312;22248;-54
2023/12/12 06:32:01;;;;;;;3.30;2.60;;;;;;;5.70;100.00;97883.36;107385;1312;22268;-53
2023/12/12 06:34:27;;;;;;;3.10;2.90;;;;;;;5.66;100.00;97885.98;107410;1312;22273;-54
2023/12/12 06:36:52;;;;;;;3.20;2.90;;;;;;;5.63;100.00;97890.17;107418;1312;22568;-53
2023/12/12 06:39:18;;;;;;;3.70;3.10;;;;;;;5.62;100.00;97891.96;107399;1312;23189;-53
2023/12/12 06:41:43;;;;;;;3.40;2.80;;;;;;;5.61;100.00;97896.38;107388;1312;22379;-54
2023/12/12 06:44:08;;;;;;;3.80;3.00;;;;;;;5.63;100.00;97903.95;107406;1312;22273;-53
2023/12/12 06:46:36;;;;;;;6.40;4.10;;;;;;;5.66;100.00;97911.55;107403;1312;22373;-54
2023/12/12 06:49:02;;;;;;;3.70;3.00;;;;;;;5.65;100.00;97915.64;107410;1312;23077;-52
2023/12/12 06:51:28;;;;;;;6.10;4.70;;;;;;;5.62;100.00;97919.98;107397;1312;22411;-54
2023/12/12 06:53:54;;;;;;;7.20;4.30;;;;;;;5.60;100.00;97925.30;107393;1312;22347;-49
2023/12/12 06:56:21;;;;;;;7.20;4.50;;;;;;;5.53;100.00;97927.58;107402;1312;22241;-52
2023/12/12 06:58:46;;;;;;;5.70;4.40;;;;;;;5.55;100.00;97930.59;107403;1312;23102;-52
2023/12/12 07:01:13;;;;;;;6.10;4.30;;;;;;;5.56;100.00;97928.27;107394;1312;22300;-54
2023/12/12 07:03:38;;;;;;;4.80;3.80;;;;;;;5.55;100.00;97931.30;107411;1312;22248;-52
2023/12/12 07:06:04;;;;;;;3.50;3.20;;;;;;;5.53;100.00;97936.80;107368;1312;22227;-53
2023/12/12 07:08:29;;;;;;;3.50;3.20;;;;;;;5.52;100.00;97935.65;107414;1312;22213;-52
2023/12/12 07:10:55;;;;;;;3.00;2.50;;;;;;;5.52;100.00;97937.23;107381;1312;22426;-52
2023/12/12 07:13:21;;;;;;;3.10;2.70;;;;;;;5.51;100.00;97940.97;107381;1312;22222;-52
2023/12/12 07:15:46;;;;;;;4.10;3.70;;;;;;;5.45;100.00;97945.09;107387;1312;22982;-51
2023/12/12 07:18:13;;;;;;;3.20;2.90;;;;;;;5.39;100.00;97953.44;107411;1312;22258;-52
2023/12/12 07:20:38;;;;;;;3.70;2.90;;;;;;;5.40;100.00;97949.69;107402;1312;22375;-52
2023/12/12 07:23:04;;;;;;;3.20;3.00;;;;;;;5.39;100.00;97955.98;107405;1312;22254;-53
2023/12/12 07:25:30;;;;;;;3.20;2.50;;;;;;;5.36;100.00;97956.70;107350;1312;22461;-52
2023/12/12 07:27:55;;;;;;;4.50;3.00;;;;;;;5.29;100.00;97956.37;107389;1312;22312;-53
2023/12/12 07:30:21;;;;;;;3.20;2.70;;;;;;;5.23;100.00;97961.80;107417;1312;23022;-52
2023/12/12 07:32:46;;;;;;;3.30;2.70;;;;;;;5.18;100.00;97960.48;107416;1312;22236;-53
2023/12/12 07:35:11;;;;;;;2.60;2.30;;;;;;;5.18;100.00;97964.30;107405;1312;22255;-52
2023/12/12 07:37:37;;;;;;;4.00;3.20;;;;;;;5.15;100.00;97968.27;107396;1312;22307;-50
2023/12/12 07:40:04;;;;;;;3.70;2.70;;;;;;;5.14;100.00;97980.83;107385;1312;23260;-53
2023/12/12 07:42:30;;;;;;;4.50;3.20;;;;;;;5.13;100.00;97984.21;107395;1312;22258;-50
2023/12/12 07:44:55;;;;;;;4.60;3.10;;;;;;;5.08;100.00;97988.44;107388;1312;22253;-50
2023/12/12 07:47:22;;;;;;;3.80;3.20;;;;;;;5.07;100.00;97994.77;107419;1304;23022;-52
2023/12/12 07:49:47;;;;;;;6.50;3.60;;;;;;;5.07;100.00;98002.41;107400;1312;22274;-52
2023/12/12 07:52:13;;;;;;;5.30;3.10;;;;;;;4.99;100.00;98005.79;107380;1312;22198;-51
2023/12/12 07:54:38;;;;;;;6.30;3.00;;;;;;;4.95;100.00;98007.54;107404;1312;22489;-49
2023/12/12 07:57:04;;;;;;;3.90;2.80;;;;;;;4.97;100.00;98011.08;107370;1312;22185;-49
2023/12/12 07:59:30;;;;;;;4.20;3.40;;;;;;;4.99;100.00;98016.18;107397;1312;22262;-51
2023/12/12 08:01:55;;;;;;;6.50;4.80;;;;;;;4.96;100.00;98021.26;107406;1312;22265;-52
2023/12/12 08:04:21;;;;;;;8.50;5.70;;;;;;;4.95;100.00;98021.63;107384;1312;22303;-51
2023/12/12 08:06:46;;;;;;;6.60;4.00;;;;;;;4.96;100.00;98024.55;107398;1312;22382;-54
2023/12/12 08:09:12;;;;;;;5.20;3.70;;;;;;;4.93;100.00;98029.39;107391;1312;22439;-49
2023/12/12 08:11:38;;;;;;;6.60;3.90;;;;;;;4.86;100.00;98028.17;107402;1312;22262;-51
2023/12/12 08:14:03;;;;;;;11.00;4.40;;;;;;;4.88;100.00;98025.83;107383;1312;22269;-52
2023/12/12 08:16:29;;;;;;;4.50;3.60;;;;;;;4.86;100.00;98029.21;107390;1312;22793;-51
2023/12/12 08:18:54;;;;;;;7.30;4.10;;;;;;;4.83;100.00;98032.33;107423;1312;23000;-51
2023/12/12 08:21:20;;;;;;;7.30;4.00;;;;;;;4.79;100.00;98033.21;107407;1312;22371;-50
2023/12/12 08:23:48;;;;;;;5.10;3.10;;;;;;;4.81;100.00;98035.73;107384;1312;23094;-51
2023/12/12 08:26:14;;;;;;;7.60;4.20;;;;;;;4.76;100.00;98040.65;107409;1312;23117;-51
2023/12/12 08:28:39;;;;;;;9.50;4.00;;;;;;;4.76;100.00;98044.34;107418;1312;22223;-51
2023/12/12 08:31:05;;;;;;;5.90;3.30;;;;;;;4.75;100.00;98046.63;107400;1312;22437;-53
2023/12/12 08:33:31;;;;;;;6.00;3.10;;;;;;;4.74;100.00;98048.61;107406;1312;22421;-50
2023/12/12 08:35:57;;;;;;;4.90;2.90;;;;;;;4.73;100.00;98052.83;107422;1312;22450;-52
2023/12/12 08:38:23;;;;;;;5.10;3.00;;;;;;;4.67;100.00;98054.89;107377;1312;22340;-52
2023/12/12 08:40:48;;;;;;;5.20;2.40;;;;;;;4.65;100.00;98065.58;107409;1312;22980;-51
2023/12/12 08:43:14;;;;;;;5.40;2.90;;;;;;;4.56;100.00;98070.66;107380;1312;22233;-52
2023/12/12 08:45:39;;;;;;;8.70;3.60;;;;;;;4.52;100.00;98077.69;107388;1312;22269;-52
2023/12/12 08:48:05;;;;;;;10.90;4.50;;;;;;;4.46;100.00;98079.54;107074;1312;23061;-51
2023/12/12 08:50:31;;;;;;;9.70;3.80;;;;;;;4.37;100.00;98090.03;107384;1312;22924;-51
2023/12/12 08:52:57;;;;;;;14.80;5.40;;;;;;;4.31;100.00;98095.69;107394;1312;22377;-51
2023/12/12 08:55:23;;;;;;;6.00;3.00;;;;;;;4.31;100.00;98098.29;107418;1312;22227;-52
2023/12/12 08:57:48;;;;;;;9.50;4.40;;;;;;;4.23;100.00;98103.56;107368;1312;23022;-50
2023/12/12 09:00:14;;;;;;;14.10;5.40;;;;;;;4.27;100.00;98107.34;107391;1312;22842;-50
2023/12/12 09:02:40;;;;;;;10.90;5.60;;;;;;;4.30;100.00;98119.70;107404;1312;22243;-52
2023/12/12 09:05:07;;;;;;;11.60;5.60;;;;;;;4.30;100.00;98126.12;107383;1311;22270;-50
2023/12/12 09:07:33;;;;;;;10.10;4.00;;;;;;;4.31;100.00;98131.61;107395;1312;23259;-52
2023/12/12 09:10:06;;;;;;;6.80;3.60;;;;;;;4.30;100.00;98143.48;107405;1312;23045;-52
2023/12/12 09:12:32;;;;;;;6.80;3.50;;;;;;;4.22;100.00;98145.91;107364;1307;23130;-48
2023/12/12 09:14:57;;;;;;;4.40;3.50;;;;;;;4.15;100.00;98144.88;107358;1309;22248;-52
2023/12/12 09:17:22;;;;;;;5.30;3.50;;;;;;;4.13;100.00;98141.86;107391;1312;22327;-52
2023/12/12 09:19:48;;;;;;;4.30;3.80;;;;;;;4.12;100.00;98143.61;107368;1307;23067;-51
2023/12/12 09:22:13;;;;;;;5.80;3.90;;;;;;;4.09;100.00;98150.18;107368;1312;22416;-52
2023/12/12 09:24:39;;;;;;;4.20;3.70;;;;;;;3.98;100.00;98154.50;107319;1312;27462;-48
2023/12/12 09:27:04;;;;;;;6.30;3.80;;;;;;;4.01;100.00;98153.53;106344;1311;22610;-50
2023/12/12 09:29:30;;;;;;;7.00;4.10;;;;;;;4.03;100.00;98157.41;106907;1311;22442;-52
2023/12/12 09:31:58;;;;;;;5.40;4.60;;;;;;;4.05;100.00;98157.64;107434;1311;22229;-52
2023/12/12 09:34:24;;;;;;;6.60;4.30;;;;;;;4.04;100.00;98159.77;107428;1311;22172;-51
2023/12/12 09:36:50;;;;;;;7.00;4.70;;;;;;;4.06;100.00;98164.52;107463;1311;22499;-54
2023/12/12 09:39:16;;;;;;;5.80;4.10;;;;;;;4.09;100.00;98167.67;107403;1310;22334;-50
2023/12/12 09:41:46;;;;;;;5.10;3.60;;;;;;;4.09;100.00;98171.70;107312;1311;22597;-51
2023/12/12 09:44:17;;;;;;;4.50;3.80;;;;;;;4.03;100.00;98169.72;107407;1311;22232;-53
2023/12/12 09:46:44;;;;;;;6.40;4.00;;;;;;;4.00;100.00;98173.17;107311;1304;22438;-53
2023/12/12 09:49:11;;;;;;;4.00;3.20;;;;;;;4.01;100.00;98177.23;107355;1304;22938;-51
2023/12/12 09:51:39;;;;;;;6.80;4.90;;;;;;;4.03;100.00;98179.41;107121;1307;22435;-49
2023/12/12 09:54:07;;;;;;;5.80;3.90;;;;;;;4.03;100.00;98182.39;107399;1304;22513;-49
2023/12/12 09:56:35;;;;;;;5.30;3.90;;;;;;;4.06;100.00;98182.73;107409;1311;22320;-51
2023/12/12 09:59:00;;;;;;;5.00;4.20;;;;;;;4.06;100.00;98185.00;107262;1311;22571;-50
2023/12/12 10:01:26;;;;;;;4.10;3.60;;;;;;;4.05;100.00;98190.25;106391;1311;23013;-49
2023/12/12 10:03:54;;;;;;;4.80;3.90;;;;;;;4.03;100.00;98193.13;107444;1311;22500;-52
2023/12/12 10:06:24;;;;;;;7.00;4.50;;;;;;;4.04;100.00;98196.73;107439;1311;22837;-52
2023/12/12 10:08:50;;;;;;;6.00;4.80;;;;;;;4.08;100.00;98196.75;107432;1311;22444;-54
2023/12/12 10:11:15;;;;;;;6.10;4.30;;;;;;;4.14;100.00;98201.45;107044;1311;23182;-54
2023/12/12 10:13:54;;;;;;;5.30;4.40;;;;;;;4.16;100.00;98200.35;107287;1311;22275;-53
2023/12/12 10:16:19;;;;;;;4.40;4.00;;;;;;;4.19;100.00;98201.91;107430;1311;23134;-50
2023/12/12 10:18:46;;;;;;;8.10;5.30;;;;;;;4.20;100.00;98198.75;107414;1311;22193;-49
2023/12/12 10:21:22;;;;;;;10.10;5.70;;;;;;;4.28;100.00;98199.26;106757;1311;22408;-54
2023/12/12 10:23:49;;;;;;;9.80;5.70;;;;;;;4.30;100.00;98201.42;107424;1311;22262;-52
2023/12/12 10:26:21;;;;;;;13.20;7.20;;;;;;;4.34;100.00;98197.05;107412;1311;23225;-53
2023/12/12 10:28:47;;;;;;;6.40;5.20;;;;;;;4.40;100.00;98194.34;107431;1311;22331;-51
2023/12/12 10:31:12;;;;;;;7.70;5.50;;;;;;;4.48;100.00;98196.21;107401;1311;22226;-51
2023/12/12 10:33:38;;;;;;;6.70;5.10;;;;;;;4.54;100.00;98195.23;107432;1311;22210;-50
2023/12/12 10:36:08;;;;;;;7.30;4.90;;;;;;;4.57;100.00;98194.90;107419;1311;22241;-51
2023/12/12 10:38:35;;;;;;;9.00;4.90;;;;;;;4.62;100.00;98196.23;107415;1311;22495;-53
2023/12/12 10:41:18;;;;;;;8.10;5.10;;;;;;;4.67;100.00;98195.15;107392;1311;22270;-49
2023/12/12 10:43:46;;;;;;;8.30;5.50;;;;;;;4.70;100.00;98196.40;107374;1304;22459;-50
2023/12/12 10:46:16;;;;;;;10.90;5.70;;;;;;;4.71;100.00;98198.08;107373;1311;22248;-48
2023/12/12 10:48:43;;;;;;;8.70;6.10;;;;;;;4.68;100.00;98196.48;107431;1304;22281;-48
2023/12/12 10:51:10;;;;;;;9.00;5.60;;;;;;;4.69;100.00;98197.80;107424;1311;22313;-49
2023/12/12 10:53:36;;;;;;;6.80;5.00;;;;;;;4.72;100.00;98204.95;107413;1311;22266;-50
2023/12/12 10:56:04;;;;;;;8.30;5.60;;;;;;;4.71;100.00;98203.61;107391;1300;22561;-49
2023/12/12 10:58:31;;;;;;;10.60;6.60;;;;;;;4.75;100.00;98208.31;107409;1311;22356;-49
2023/12/12 11:00:58;;;;;;;10.60;6.80;;;;;;;4.81;100.00;98213.39;107381;1311;22338;-51
2023/12/12 11:03:24;;;;;;;9.40;6.40;;;;;;;4.83;100.00;98220.23;107381;1311;22287;-51
2023/12/12 11:05:50;;;;;;;10.30;7.80;;;;;;;4.84;100.00;98228.14;107371;1310;22277;-52
2023/12/12 11:08:16;;;;;;;9.70;6.60;;;;;;;4.88;100.00;98228.82;107381;1304;22246;-49
2023/12/12 11:10:42;;;;;;;7.00;5.10;;;;;;;4.91;100.00;98228.48;107395;1304;23117;-50
2023/12/12 11:13:08;;;;;;;6.00;5.00;;;;;;;4.91;100.00;98230.58;107345;1304;22522;-48